sensor_id;sensor_type;location;lat;lon;timestamp;pressure;altitude;pressure_sealevel;temperature;humidity
52957;BME280;38819;42.692;23.342;2024-02-16T00:01:03;95875.94;;;4.89;63.19
52957;BME280;38819;42.692;23.342;2024-02-16T00:03:29;95876.97;;;4.88;63.42
52957;BME280;38819;42.692;23.342;2024-02-16T00:05:54;95878.53;;;4.83;63.58
52957;BME280;38819;42.692;23.342;2024-02-16T00:08:20;95877.88;;;4.76;63.99
52957;BME280;38819;42.692;23.342;2024-02-16T00:10:46;95878.44;;;4.78;63.86
52957;BME280;38819;42.692;23.342;2024-02-16T00:13:12;95874.44;;;4.81;63.71
52957;BME280;38819;42.692;23.342;2024-02-16T00:15:38;95882.59;;;4.86;63.01
52957;BME280;38819;42.692;23.342;2024-02-16T00:18:04;95875.84;;;4.83;62.61
52957;BME280;38819;42.692;23.342;2024-02-16T00:20:30;95887.81;;;4.93;62.00
52957;BME280;38819;42.692;23.342;2024-02-16T00:22:56;95884.25;;;5.04;61.69
52957;BME280;38819;42.692;23.342;2024-02-16T00:25:22;95882.38;;;5.05;61.17
52957;BME280;38819;42.692;23.342;2024-02-16T00:27:47;95874.00;;;5.01;61.27
52957;BME280;38819;42.692;23.342;2024-02-16T00:30:13;95887.66;;;4.99;61.25
52957;BME280;38819;42.692;23.342;2024-02-16T00:32:38;95880.44;;;5.00;61.11
52957;BME280;38819;42.692;23.342;2024-02-16T00:35:04;95890.56;;;4.98;61.20
52957;BME280;38819;42.692;23.342;2024-02-16T00:37:29;95887.66;;;4.99;60.96
52957;BME280;38819;42.692;23.342;2024-02-16T00:39:55;95874.75;;;4.96;61.18
52957;BME280;38819;42.692;23.342;2024-02-16T00:42:21;95886.59;;;5.00;60.97
52957;BME280;38819;42.692;23.342;2024-02-16T00:44:49;95882.53;;;4.98;60.97
52957;BME280;38819;42.692;23.342;2024-02-16T00:47:14;95884.97;;;4.99;60.78
52957;BME280;38819;42.692;23.342;2024-02-16T00:49:42;95887.06;;;4.97;61.04
52957;BME280;38819;42.692;23.342;2024-02-16T00:52:07;95885.22;;;4.98;60.91
52957;BME280;38819;42.692;23.342;2024-02-16T00:54:33;95892.41;;;4.97;60.96
52957;BME280;38819;42.692;23.342;2024-02-16T00:56:58;95884.38;;;4.97;60.74
52957;BME280;38819;42.692;23.342;2024-02-16T00:59:27;95877.03;;;5.05;60.90
52957;BME280;38819;42.692;23.342;2024-02-16T01:01:53;95893.66;;;5.07;61.34
52957;BME280;38819;42.692;23.342;2024-02-16T01:04:18;95896.03;;;5.03;61.72
52957;BME280;38819;42.692;23.342;2024-02-16T01:06:44;95884.06;;;4.94;62.15
52957;BME280;38819;42.692;23.342;2024-02-16T01:09:09;95884.59;;;4.79;62.90
52957;BME280;38819;42.692;23.342;2024-02-16T01:11:36;95880.69;;;4.70;62.82
52957;BME280;38819;42.692;23.342;2024-02-16T01:14:01;95886.75;;;4.65;62.87
52957;BME280;38819;42.692;23.342;2024-02-16T01:16:27;95881.25;;;4.72;62.70
52957;BME280;38819;42.692;23.342;2024-02-16T01:18:52;95875.09;;;4.71;62.34
52957;BME280;38819;42.692;23.342;2024-02-16T01:21:18;95874.69;;;4.51;62.99
52957;BME280;38819;42.692;23.342;2024-02-16T01:23:43;95878.06;;;4.58;62.87
52957;BME280;38819;42.692;23.342;2024-02-16T01:26:09;95882.38;;;4.47;63.13
52957;BME280;38819;42.692;23.342;2024-02-16T01:28:35;95876.59;;;4.38;63.50
52957;BME280;38819;42.692;23.342;2024-02-16T01:31:00;95871.69;;;4.47;63.24
52957;BME280;38819;42.692;23.342;2024-02-16T01:33:26;95873.59;;;4.35;63.58
52957;BME280;38819;42.692;23.342;2024-02-16T01:35:51;95861.94;;;4.29;63.91
52957;BME280;38819;42.692;23.342;2024-02-16T01:38:17;95863.72;;;4.23;64.07
52957;BME280;38819;42.692;23.342;2024-02-16T01:40:42;95868.59;;;4.26;63.83
52957;BME280;38819;42.692;23.342;2024-02-16T01:43:07;95861.75;;;4.19;64.03
52957;BME280;38819;42.692;23.342;2024-02-16T01:45:33;95867.94;;;4.19;64.25
52957;BME280;38819;42.692;23.342;2024-02-16T01:47:58;95856.88;;;4.04;64.68
52957;BME280;38819;42.692;23.342;2024-02-16T01:50:24;95861.31;;;4.10;64.34
52957;BME280;38819;42.692;23.342;2024-02-16T01:52:50;95867.13;;;4.07;64.46
52957;BME280;38819;42.692;23.342;2024-02-16T01:55:16;95857.00;;;3.97;65.22
52957;BME280;38819;42.692;23.342;2024-02-16T01:57:45;95857.75;;;3.93;65.28
52957;BME280;38819;42.692;23.342;2024-02-16T02:00:12;95862.25;;;4.04;64.72
52957;BME280;38819;42.692;23.342;2024-02-16T02:02:40;95859.19;;;4.12;64.36
52957;BME280;38819;42.692;23.342;2024-02-16T02:05:06;95862.44;;;4.14;64.34
52957;BME280;38819;42.692;23.342;2024-02-16T02:07:32;95862.25;;;4.04;64.77
52957;BME280;38819;42.692;23.342;2024-02-16T02:09:57;95856.28;;;4.14;64.43
52957;BME280;38819;42.692;23.342;2024-02-16T02:12:23;95861.97;;;4.17;64.18
52957;BME280;38819;42.692;23.342;2024-02-16T02:14:49;95860.47;;;4.21;64.28
52957;BME280;38819;42.692;23.342;2024-02-16T02:17:15;95861.63;;;4.25;64.08
52957;BME280;38819;42.692;23.342;2024-02-16T02:19:40;95860.28;;;4.11;64.29
52957;BME280;38819;42.692;23.342;2024-02-16T02:22:13;95868.19;;;4.06;64.38
52957;BME280;38819;42.692;23.342;2024-02-16T02:24:39;95865.25;;;4.07;64.03
52957;BME280;38819;42.692;23.342;2024-02-16T02:27:04;95859.69;;;3.97;64.46
52957;BME280;38819;42.692;23.342;2024-02-16T02:29:30;95862.13;;;3.99;64.72
52957;BME280;38819;42.692;23.342;2024-02-16T02:31:55;95858.28;;;4.06;64.41
52957;BME280;38819;42.692;23.342;2024-02-16T02:34:20;95858.63;;;4.10;64.56
52957;BME280;38819;42.692;23.342;2024-02-16T02:36:46;95860.28;;;4.11;64.24
52957;BME280;38819;42.692;23.342;2024-02-16T02:39:11;95863.31;;;4.03;64.32
52957;BME280;38819;42.692;23.342;2024-02-16T02:41:38;95859.56;;;4.04;63.91
52957;BME280;38819;42.692;23.342;2024-02-16T02:44:04;95862.25;;;3.92;64.32
52957;BME280;38819;42.692;23.342;2024-02-16T02:46:30;95864.13;;;3.92;64.49
52957;BME280;38819;42.692;23.342;2024-02-16T02:48:56;95858.44;;;3.88;64.58
52957;BME280;38819;42.692;23.342;2024-02-16T02:51:21;95859.72;;;3.85;65.07
52957;BME280;38819;42.692;23.342;2024-02-16T02:53:47;95872.28;;;3.73;65.94
52957;BME280;38819;42.692;23.342;2024-02-16T02:56:12;95853.81;;;3.60;66.36
52957;BME280;38819;42.692;23.342;2024-02-16T02:58:41;95865.41;;;3.65;66.28
52957;BME280;38819;42.692;23.342;2024-02-16T03:01:06;95860.28;;;3.76;65.52
52957;BME280;38819;42.692;23.342;2024-02-16T03:03:33;95869.03;;;3.83;65.58
52957;BME280;38819;42.692;23.342;2024-02-16T03:05:59;95861.81;;;3.71;65.64
52957;BME280;38819;42.692;23.342;2024-02-16T03:08:24;95855.44;;;3.73;65.72
52957;BME280;38819;42.692;23.342;2024-02-16T03:10:50;95855.66;;;3.71;65.83
52957;BME280;38819;42.692;23.342;2024-02-16T03:13:15;95866.47;;;3.64;66.15
52957;BME280;38819;42.692;23.342;2024-02-16T03:15:43;95865.97;;;3.56;66.37
52957;BME280;38819;42.692;23.342;2024-02-16T03:18:08;95856.47;;;3.60;66.07
52957;BME280;38819;42.692;23.342;2024-02-16T03:20:35;95860.75;;;3.61;65.79
52957;BME280;38819;42.692;23.342;2024-02-16T03:23:01;95862.50;;;3.67;65.82
52957;BME280;38819;42.692;23.342;2024-02-16T03:25:26;95862.72;;;3.65;65.77
52957;BME280;38819;42.692;23.342;2024-02-16T03:27:52;95862.50;;;3.67;65.84
52957;BME280;38819;42.692;23.342;2024-02-16T03:30:20;95869.03;;;3.59;66.26
52957;BME280;38819;42.692;23.342;2024-02-16T03:32:50;95871.44;;;3.61;66.52
52957;BME280;38819;42.692;23.342;2024-02-16T03:35:16;95871.81;;;3.52;66.35
52957;BME280;38819;42.692;23.342;2024-02-16T03:37:42;95865.19;;;3.67;65.90
52957;BME280;38819;42.692;23.342;2024-02-16T03:40:08;95872.84;;;3.75;65.75
52957;BME280;38819;42.692;23.342;2024-02-16T03:42:35;95873.53;;;3.59;66.39
52957;BME280;38819;42.692;23.342;2024-02-16T03:45:00;95877.00;;;3.47;66.43
52957;BME280;38819;42.692;23.342;2024-02-16T03:47:26;95868.19;;;3.59;66.25
52957;BME280;38819;42.692;23.342;2024-02-16T03:49:51;95872.16;;;3.44;66.79
52957;BME280;38819;42.692;23.342;2024-02-16T03:52:17;95864.94;;;3.45;66.49
52957;BME280;38819;42.692;23.342;2024-02-16T03:54:42;95873.19;;;3.43;66.63
52957;BME280;38819;42.692;23.342;2024-02-16T03:57:09;95868.31;;;3.40;66.50
52957;BME280;38819;42.692;23.342;2024-02-16T03:59:36;95872.25;;;3.38;66.66
52957;BME280;38819;42.692;23.342;2024-02-16T04:02:02;95860.16;;;3.23;67.40
52957;BME280;38819;42.692;23.342;2024-02-16T04:04:28;95863.06;;;3.22;67.41
52957;BME280;38819;42.692;23.342;2024-02-16T04:06:53;95864.09;;;3.21;67.26
52957;BME280;38819;42.692;23.342;2024-02-16T04:09:18;95869.44;;;3.21;67.39
52957;BME280;38819;42.692;23.342;2024-02-16T04:11:45;95864.59;;;3.29;66.89
52957;BME280;38819;42.692;23.342;2024-02-16T04:14:11;95859.47;;;3.40;66.46
52957;BME280;38819;42.692;23.342;2024-02-16T04:16:36;95871.31;;;3.44;66.34
52957;BME280;38819;42.692;23.342;2024-02-16T04:19:02;95866.09;;;3.37;65.93
52957;BME280;38819;42.692;23.342;2024-02-16T04:21:27;95867.94;;;3.37;66.15
52957;BME280;38819;42.692;23.342;2024-02-16T04:23:53;95868.31;;;3.40;66.10
52957;BME280;38819;42.692;23.342;2024-02-16T04:26:18;95859.38;;;3.34;66.36
52957;BME280;38819;42.692;23.342;2024-02-16T04:28:43;95870.03;;;3.23;66.66
52957;BME280;38819;42.692;23.342;2024-02-16T04:31:09;95863.97;;;3.27;66.16
52957;BME280;38819;42.692;23.342;2024-02-16T04:33:34;95867.72;;;3.26;66.03
52957;BME280;38819;42.692;23.342;2024-02-16T04:35:59;95865.28;;;3.25;66.02
52957;BME280;38819;42.692;23.342;2024-02-16T04:38:25;95869.31;;;3.27;66.26
52957;BME280;38819;42.692;23.342;2024-02-16T04:40:50;95873.84;;;3.27;66.14
52957;BME280;38819;42.692;23.342;2024-02-16T04:43:15;95887.66;;;3.24;66.22
52957;BME280;38819;42.692;23.342;2024-02-16T04:45:41;95872.69;;;3.11;66.57
52957;BME280;38819;42.692;23.342;2024-02-16T04:48:07;95871.28;;;3.08;66.55
52957;BME280;38819;42.692;23.342;2024-02-16T04:50:34;95884.63;;;3.08;66.73
52957;BME280;38819;42.692;23.342;2024-02-16T04:53:00;95872.06;;;3.09;66.90
52957;BME280;38819;42.692;23.342;2024-02-16T04:55:28;95887.19;;;3.15;66.62
52957;BME280;38819;42.692;23.342;2024-02-16T04:57:55;95889.63;;;3.17;66.29
52957;BME280;38819;42.692;23.342;2024-02-16T05:00:21;95886.38;;;3.14;66.26
52957;BME280;38819;42.692;23.342;2024-02-16T05:02:46;95877.28;;;3.04;66.75
52957;BME280;38819;42.692;23.342;2024-02-16T05:05:12;95892.41;;;3.10;66.63
52957;BME280;38819;42.692;23.342;2024-02-16T05:07:37;95892.16;;;3.11;66.91
52957;BME280;38819;42.692;23.342;2024-02-16T05:10:03;95894.38;;;3.14;66.28
52957;BME280;38819;42.692;23.342;2024-02-16T05:12:29;95892.53;;;3.15;66.08
52957;BME280;38819;42.692;23.342;2024-02-16T05:14:54;95903.44;;;3.13;66.24
52957;BME280;38819;42.692;23.342;2024-02-16T05:17:20;95904.94;;;3.09;66.24
52957;BME280;38819;42.692;23.342;2024-02-16T05:19:47;95900.94;;;3.00;66.51
52957;BME280;38819;42.692;23.342;2024-02-16T05:22:13;95906.06;;;3.02;66.62
52957;BME280;38819;42.692;23.342;2024-02-16T05:24:38;95908.72;;;3.02;66.69
52957;BME280;38819;42.692;23.342;2024-02-16T05:27:04;95905.63;;;3.05;66.54
52957;BME280;38819;42.692;23.342;2024-02-16T05:29:29;95913.63;;;3.05;66.25
52957;BME280;38819;42.692;23.342;2024-02-16T05:31:55;95918.41;;;3.14;66.03
52957;BME280;38819;42.692;23.342;2024-02-16T05:34:20;95918.28;;;3.09;65.84
52957;BME280;38819;42.692;23.342;2024-02-16T05:36:45;95925.59;;;3.14;66.02
52957;BME280;38819;42.692;23.342;2024-02-16T05:39:11;95925.13;;;3.17;66.22
52957;BME280;38819;42.692;23.342;2024-02-16T05:41:46;95918.88;;;3.23;65.67
52957;BME280;38819;42.692;23.342;2024-02-16T05:44:12;95925.59;;;3.14;66.23
52957;BME280;38819;42.692;23.342;2024-02-16T05:46:37;95924.56;;;3.15;66.14
52957;BME280;38819;42.692;23.342;2024-02-16T05:49:04;95923.75;;;3.14;65.95
52957;BME280;38819;42.692;23.342;2024-02-16T05:51:37;95921.72;;;2.98;66.48
52957;BME280;38819;42.692;23.342;2024-02-16T05:54:04;95926.25;;;2.97;66.52
52957;BME280;38819;42.692;23.342;2024-02-16T05:56:29;95938.84;;;2.90;66.95
52957;BME280;38819;42.692;23.342;2024-02-16T05:58:59;95938.31;;;3.00;66.97
52957;BME280;38819;42.692;23.342;2024-02-16T06:01:24;95928.69;;;2.99;66.91
52957;BME280;38819;42.692;23.342;2024-02-16T06:03:50;95922.44;;;3.05;66.58
52957;BME280;38819;42.692;23.342;2024-02-16T06:06:15;95929.19;;;3.08;66.45
52957;BME280;38819;42.692;23.342;2024-02-16T06:08:40;95927.41;;;3.02;67.01
52957;BME280;38819;42.692;23.342;2024-02-16T06:11:09;95927.28;;;2.96;67.23
52957;BME280;38819;42.692;23.342;2024-02-16T06:13:34;95931.97;;;3.13;66.96
52957;BME280;38819;42.692;23.342;2024-02-16T06:16:00;95934.66;;;3.13;66.97
52957;BME280;38819;42.692;23.342;2024-02-16T06:18:25;95922.69;;;3.15;66.75
52957;BME280;38819;42.692;23.342;2024-02-16T06:20:54;95942.38;;;3.33;66.72
52957;BME280;38819;42.692;23.342;2024-02-16T06:23:20;95938.78;;;3.39;66.14
52957;BME280;38819;42.692;23.342;2024-02-16T06:25:45;95936.81;;;3.34;66.11
52957;BME280;38819;42.692;23.342;2024-02-16T06:28:11;95943.41;;;3.32;66.46
52957;BME280;38819;42.692;23.342;2024-02-16T06:30:36;95932.94;;;3.30;66.58
52957;BME280;38819;42.692;23.342;2024-02-16T06:33:01;95936.34;;;3.38;66.58
52957;BME280;38819;42.692;23.342;2024-02-16T06:35:29;95927.19;;;3.45;66.07
52957;BME280;38819;42.692;23.342;2024-02-16T06:37:54;95938.81;;;3.51;66.12
52957;BME280;38819;42.692;23.342;2024-02-16T06:40:20;95933.47;;;3.51;66.13
52957;BME280;38819;42.692;23.342;2024-02-16T06:42:46;95934.16;;;3.58;66.05
52957;BME280;38819;42.692;23.342;2024-02-16T06:45:11;95935.09;;;3.64;65.83
52957;BME280;38819;42.692;23.342;2024-02-16T06:47:37;95938.50;;;3.71;65.77
52957;BME280;38819;42.692;23.342;2024-02-16T06:50:02;95936.16;;;3.75;65.57
52957;BME280;38819;42.692;23.342;2024-02-16T06:52:28;95939.88;;;3.85;65.38
52957;BME280;38819;42.692;23.342;2024-02-16T06:54:53;95937.66;;;3.94;65.07
52957;BME280;38819;42.692;23.342;2024-02-16T06:57:19;95929.41;;;3.96;64.97
52957;BME280;38819;42.692;23.342;2024-02-16T06:59:45;95936.06;;;3.93;65.09
52957;BME280;38819;42.692;23.342;2024-02-16T07:02:11;95943.97;;;4.00;64.90
52957;BME280;38819;42.692;23.342;2024-02-16T07:04:36;95936.41;;;3.97;65.04
52957;BME280;38819;42.692;23.342;2024-02-16T07:07:01;95934.06;;;4.00;65.13
52957;BME280;38819;42.692;23.342;2024-02-16T07:09:27;95935.38;;;3.98;64.95
52957;BME280;38819;42.692;23.342;2024-02-16T07:11:52;95947.88;;;4.09;64.87
52957;BME280;38819;42.692;23.342;2024-02-16T07:14:18;95939.50;;;4.17;64.84
52957;BME280;38819;42.692;23.342;2024-02-16T07:16:43;95941.72;;;4.32;64.42
52957;BME280;38819;42.692;23.342;2024-02-16T07:19:09;95930.88;;;4.39;64.16
52957;BME280;38819;42.692;23.342;2024-02-16T07:21:34;95930.09;;;4.38;64.12
52957;BME280;38819;42.692;23.342;2024-02-16T07:24:00;95939.94;;;4.50;63.77
52957;BME280;38819;42.692;23.342;2024-02-16T07:26:25;95929.78;;;4.63;63.37
52957;BME280;38819;42.692;23.342;2024-02-16T07:28:50;95926.50;;;4.73;63.14
52957;BME280;38819;42.692;23.342;2024-02-16T07:31:16;95931.91;;;4.90;62.94
52957;BME280;38819;42.692;23.342;2024-02-16T07:33:42;95923.94;;;5.07;62.23
52957;BME280;38819;42.692;23.342;2024-02-16T07:36:07;95928.94;;;5.04;62.69
52957;BME280;38819;42.692;23.342;2024-02-16T07:38:32;95931.38;;;5.05;62.43
52957;BME280;38819;42.692;23.342;2024-02-16T07:40:58;95930.34;;;5.06;62.42
52957;BME280;38819;42.692;23.342;2024-02-16T07:43:24;95929.38;;;5.12;61.83
52957;BME280;38819;42.692;23.342;2024-02-16T07:45:50;95935.56;;;5.13;61.79
52957;BME280;38819;42.692;23.342;2024-02-16T07:48:19;95933.91;;;5.12;62.03
52957;BME280;38819;42.692;23.342;2024-02-16T07:50:45;95932.13;;;5.17;61.87
52957;BME280;38819;42.692;23.342;2024-02-16T07:53:10;95940.13;;;5.29;61.64
52957;BME280;38819;42.692;23.342;2024-02-16T07:55:37;95940.44;;;5.33;61.53
52957;BME280;38819;42.692;23.342;2024-02-16T07:58:02;95944.50;;;5.35;61.36
52957;BME280;38819;42.692;23.342;2024-02-16T08:00:28;95936.41;;;5.47;61.25
52957;BME280;38819;42.692;23.342;2024-02-16T08:02:53;95940.31;;;5.56;60.78
52957;BME280;38819;42.692;23.342;2024-02-16T08:05:19;95948.84;;;5.53;60.57
52957;BME280;38819;42.692;23.342;2024-02-16T08:07:46;95946.81;;;5.61;60.53
52957;BME280;38819;42.692;23.342;2024-02-16T08:10:12;95945.19;;;5.60;60.47
52957;BME280;38819;42.692;23.342;2024-02-16T08:12:37;95952.97;;;5.61;60.26
52957;BME280;38819;42.692;23.342;2024-02-16T08:15:04;95941.28;;;5.67;59.97
52957;BME280;38819;42.692;23.342;2024-02-16T08:17:34;95942.09;;;5.68;60.06
52957;BME280;38819;42.692;23.342;2024-02-16T08:20:00;95940.31;;;5.73;59.94
52957;BME280;38819;42.692;23.342;2024-02-16T08:22:25;95932.84;;;5.75;59.85
52957;BME280;38819;42.692;23.342;2024-02-16T08:24:51;95938.44;;;5.74;59.78
52957;BME280;38819;42.692;23.342;2024-02-16T08:27:17;95938.59;;;5.84;59.52
52957;BME280;38819;42.692;23.342;2024-02-16T08:29:43;95946.97;;;5.88;59.38
52957;BME280;38819;42.692;23.342;2024-02-16T08:32:09;95946.72;;;5.89;59.36
52957;BME280;38819;42.692;23.342;2024-02-16T08:34:35;95939.44;;;6.02;59.20
52957;BME280;38819;42.692;23.342;2024-02-16T08:37:02;95948.53;;;6.01;59.08
52957;BME280;38819;42.692;23.342;2024-02-16T08:39:29;95941.38;;;5.89;59.29
52957;BME280;38819;42.692;23.342;2024-02-16T08:41:55;95942.53;;;5.93;59.48
52957;BME280;38819;42.692;23.342;2024-02-16T08:44:20;95943.00;;;5.90;59.64
52957;BME280;38819;42.692;23.342;2024-02-16T08:46:46;95942.06;;;5.97;59.68
52957;BME280;38819;42.692;23.342;2024-02-16T08:49:14;95936.84;;;6.07;59.36
52957;BME280;38819;42.692;23.342;2024-02-16T08:51:39;95934.09;;;6.02;59.44
52957;BME280;38819;42.692;23.342;2024-02-16T08:54:04;95945.44;;;6.09;59.69
52957;BME280;38819;42.692;23.342;2024-02-16T08:56:30;95938.88;;;6.17;59.59
52957;BME280;38819;42.692;23.342;2024-02-16T08:58:56;95936.41;;;6.32;59.30
52957;BME280;38819;42.692;23.342;2024-02-16T09:01:32;95937.09;;;6.44;59.01
52957;BME280;38819;42.692;23.342;2024-02-16T09:03:57;95940.72;;;6.55;58.68
52957;BME280;38819;42.692;23.342;2024-02-16T09:06:22;95941.78;;;6.54;58.79
52957;BME280;38819;42.692;23.342;2024-02-16T09:08:48;95936.53;;;6.64;58.31
52957;BME280;38819;42.692;23.342;2024-02-16T09:11:13;95936.41;;;6.76;57.77
52957;BME280;38819;42.692;23.342;2024-02-16T09:13:39;95939.41;;;6.80;57.58
52957;BME280;38819;42.692;23.342;2024-02-16T09:16:05;95944.06;;;6.90;57.39
52957;BME280;38819;42.692;23.342;2024-02-16T09:18:31;95940.50;;;7.06;57.21
52957;BME280;38819;42.692;23.342;2024-02-16T09:20:56;95945.72;;;7.18;57.06
52957;BME280;38819;42.692;23.342;2024-02-16T09:23:21;95934.88;;;7.35;56.61
52957;BME280;38819;42.692;23.342;2024-02-16T09:25:47;95938.78;;;7.49;56.16
52957;BME280;38819;42.692;23.342;2024-02-16T09:28:13;95946.72;;;7.66;55.68
52957;BME280;38819;42.692;23.342;2024-02-16T09:30:39;95938.25;;;7.79;54.78
52957;BME280;38819;42.692;23.342;2024-02-16T09:33:04;95938.78;;;7.82;54.27
52957;BME280;38819;42.692;23.342;2024-02-16T09:35:31;95932.91;;;7.85;53.90
52957;BME280;38819;42.692;23.342;2024-02-16T09:37:56;95932.13;;;7.89;53.25
52957;BME280;38819;42.692;23.342;2024-02-16T09:40:22;95928.34;;;7.85;53.65
52957;BME280;38819;42.692;23.342;2024-02-16T09:42:48;95929.19;;;7.91;53.36
52957;BME280;38819;42.692;23.342;2024-02-16T09:45:17;95934.84;;;7.94;53.27
52957;BME280;38819;42.692;23.342;2024-02-16T09:47:44;95927.59;;;7.95;53.47
52957;BME280;38819;42.692;23.342;2024-02-16T09:50:10;95924.13;;;8.00;53.42
52957;BME280;38819;42.692;23.342;2024-02-16T09:52:36;95931.22;;;8.11;53.27
52957;BME280;38819;42.692;23.342;2024-02-16T09:55:03;95932.50;;;8.03;53.10
52957;BME280;38819;42.692;23.342;2024-02-16T09:57:29;95928.47;;;8.01;53.13
52957;BME280;38819;42.692;23.342;2024-02-16T09:59:55;95926.66;;;8.16;53.13
52957;BME280;38819;42.692;23.342;2024-02-16T10:02:20;95914.91;;;8.28;53.21
52957;BME280;38819;42.692;23.342;2024-02-16T10:04:46;95915.50;;;8.40;52.86
52957;BME280;38819;42.692;23.342;2024-02-16T10:07:11;95909.38;;;8.50;52.63
52957;BME280;38819;42.692;23.342;2024-02-16T10:09:38;95907.31;;;8.67;52.58
52957;BME280;38819;42.692;23.342;2024-02-16T10:12:05;95909.19;;;8.67;52.18
52957;BME280;38819;42.692;23.342;2024-02-16T10:14:32;95896.00;;;8.65;52.02
52957;BME280;38819;42.692;23.342;2024-02-16T10:17:02;95891.72;;;8.69;51.68
52957;BME280;38819;42.692;23.342;2024-02-16T10:19:29;95890.66;;;8.70;51.87
52957;BME280;38819;42.692;23.342;2024-02-16T10:22:11;95899.81;;;8.75;52.00
52957;BME280;38819;42.692;23.342;2024-02-16T10:24:38;95890.03;;;8.58;52.35
52957;BME280;38819;42.692;23.342;2024-02-16T10:27:16;95884.94;;;8.62;52.38
52957;BME280;38819;42.692;23.342;2024-02-16T10:29:43;95884.16;;;8.66;52.38
52957;BME280;38819;42.692;23.342;2024-02-16T10:32:11;95885.75;;;8.62;52.61
52957;BME280;38819;42.692;23.342;2024-02-16T10:34:38;95886.84;;;8.71;52.52
52957;BME280;38819;42.692;23.342;2024-02-16T10:37:04;95876.13;;;8.82;52.38
52957;BME280;38819;42.692;23.342;2024-02-16T10:39:31;95870.19;;;8.80;52.43
52957;BME280;38819;42.692;23.342;2024-02-16T10:41:58;95869.41;;;8.84;52.62
52957;BME280;38819;42.692;23.342;2024-02-16T10:44:27;95870.78;;;8.92;52.13
52957;BME280;38819;42.692;23.342;2024-02-16T10:46:53;95867.84;;;9.04;51.88
52957;BME280;38819;42.692;23.342;2024-02-16T10:49:22;95865.16;;;9.09;52.08
52957;BME280;38819;42.692;23.342;2024-02-16T10:51:52;95866.47;;;9.06;52.39
52957;BME280;38819;42.692;23.342;2024-02-16T10:54:21;95865.94;;;9.09;51.83
52957;BME280;38819;42.692;23.342;2024-02-16T10:56:48;95864.31;;;8.98;52.24
52957;BME280;38819;42.692;23.342;2024-02-16T10:59:16;95856.22;;;9.03;52.26
52957;BME280;38819;42.692;23.342;2024-02-16T11:01:43;95857.88;;;9.04;52.09
52957;BME280;38819;42.692;23.342;2024-02-16T11:04:15;95868.13;;;9.13;51.67
52957;BME280;38819;42.692;23.342;2024-02-16T11:06:56;95864.63;;;9.22;51.81
52957;BME280;38819;42.692;23.342;2024-02-16T11:09:34;95851.69;;;9.24;51.68
52957;BME280;38819;42.692;23.342;2024-02-16T11:12:01;95850.34;;;9.22;51.86
52957;BME280;38819;42.692;23.342;2024-02-16T11:14:36;95851.44;;;9.21;52.08
52957;BME280;38819;42.692;23.342;2024-02-16T11:17:07;95857.88;;;9.15;51.73
52957;BME280;38819;42.692;23.342;2024-02-16T11:19:34;95843.06;;;9.17;51.70
52957;BME280;38819;42.692;23.342;2024-02-16T11:22:03;95848.72;;;9.26;51.57
52957;BME280;38819;42.692;23.342;2024-02-16T11:24:33;95843.06;;;9.22;51.43
52957;BME280;38819;42.692;23.342;2024-02-16T11:27:04;95844.69;;;9.34;51.50
52957;BME280;38819;42.692;23.342;2024-02-16T11:29:37;95841.75;;;9.45;51.46
52957;BME280;38819;42.692;23.342;2024-02-16T11:32:05;95832.56;;;9.46;50.87
52957;BME280;38819;42.692;23.342;2024-02-16T11:34:31;95837.41;;;9.60;51.15
52957;BME280;38819;42.692;23.342;2024-02-16T11:37:01;95819.88;;;9.62;50.89
52957;BME280;38819;42.692;23.342;2024-02-16T11:39:28;95826.09;;;9.53;50.92
52957;BME280;38819;42.692;23.342;2024-02-16T11:42:08;95829.31;;;9.55;50.86
52957;BME280;38819;42.692;23.342;2024-02-16T11:44:36;95826.09;;;9.63;51.28
52957;BME280;38819;42.692;23.342;2024-02-16T11:47:05;95830.38;;;9.54;50.39
52957;BME280;38819;42.692;23.342;2024-02-16T11:49:32;95816.91;;;9.64;50.44
52957;BME280;38819;42.692;23.342;2024-02-16T11:52:04;95812.56;;;9.73;50.18
52957;BME280;38819;42.692;23.342;2024-02-16T11:54:30;95820.41;;;9.70;50.31
52957;BME280;38819;42.692;23.342;2024-02-16T11:56:56;95807.72;;;9.65;50.28
52957;BME280;38819;42.692;23.342;2024-02-16T11:59:22;95808.00;;;9.63;50.24
52957;BME280;38819;42.692;23.342;2024-02-16T12:01:55;95807.72;;;9.75;50.26
52957;BME280;38819;42.692;23.342;2024-02-16T12:04:25;95808.00;;;9.84;50.51
52957;BME280;38819;42.692;23.342;2024-02-16T12:07:01;95812.00;;;9.87;50.21
52957;BME280;38819;42.692;23.342;2024-02-16T12:09:27;95810.41;;;9.80;49.95
52957;BME280;38819;42.692;23.342;2024-02-16T12:11:54;95799.59;;;9.96;49.72
52957;BME280;38819;42.692;23.342;2024-02-16T12:14:22;95801.47;;;9.95;49.68
52957;BME280;38819;42.692;23.342;2024-02-16T12:16:52;95802.28;;;9.96;49.54
52957;BME280;38819;42.692;23.342;2024-02-16T12:19:20;95799.59;;;9.96;49.59
52957;BME280;38819;42.692;23.342;2024-02-16T12:21:51;95798.75;;;10.00;49.82
52957;BME280;38819;42.692;23.342;2024-02-16T12:24:17;95792.00;;;10.03;49.88
52957;BME280;38819;42.692;23.342;2024-02-16T12:26:43;95793.88;;;10.08;49.86
52957;BME280;38819;42.692;23.342;2024-02-16T12:29:08;95795.75;;;10.17;49.97
52957;BME280;38819;42.692;23.342;2024-02-16T12:31:41;95787.09;;;10.15;50.16
52957;BME280;38819;42.692;23.342;2024-02-16T12:34:07;95791.97;;;10.13;49.86
52957;BME280;38819;42.692;23.342;2024-02-16T12:36:36;95793.56;;;10.25;49.88
52957;BME280;38819;42.692;23.342;2024-02-16T12:39:03;95785.66;;;10.44;49.72
52957;BME280;38819;42.692;23.342;2024-02-16T12:41:35;95780.00;;;10.45;49.18
52957;BME280;38819;42.692;23.342;2024-02-16T12:44:04;95775.69;;;10.44;49.24
52957;BME280;38819;42.692;23.342;2024-02-16T12:46:30;95780.50;;;10.52;49.19
52957;BME280;38819;42.692;23.342;2024-02-16T12:48:56;95775.88;;;10.58;48.99
52957;BME280;38819;42.692;23.342;2024-02-16T12:51:21;95772.66;;;10.56;48.70
52957;BME280;38819;42.692;23.342;2024-02-16T12:53:47;95775.88;;;10.58;48.59
52957;BME280;38819;42.692;23.342;2024-02-16T12:56:13;95768.28;;;10.65;48.67